sensor_id;sensor_type;location;lat;lon;timestamp;P1;durP1;ratioP1;P2;durP2;ratioP2
75665;SDS011;64263;49.492;11.056;2023-07-02T00:01:09;4.15;;;1.30;;
75665;SDS011;64263;49.492;11.056;2023-07-02T00:03:35;2.92;;;1.27;;
75665;SDS011;64263;49.492;11.056;2023-07-02T00:06:02;4.60;;;1.30;;
75665;SDS011;64263;49.492;11.056;2023-07-02T00:08:28;3.75;;;1.60;;
75665;SDS011;64263;49.492;11.056;2023-07-02T00:10:53;5.50;;;1.30;;
75665;SDS011;64263;49.492;11.056;2023-07-02T00:13:19;2.70;;;1.13;;
75665;SDS011;64263;49.492;11.056;2023-07-02T00:15:44;3.55;;;1.40;;
75665;SDS011;64263;49.492;11.056;2023-07-02T00:18:10;4.47;;;1.40;;
75665;SDS011;64263;49.492;11.056;2023-07-02T00:20:35;3.58;;;1.30;;
75665;SDS011;64263;49.492;11.056;2023-07-02T00:23:01;2.90;;;1.20;;
75665;SDS011;64263;49.492;11.056;2023-07-02T00:25:26;3.83;;;1.52;;
75665;SDS011;64263;49.492;11.056;2023-07-02T00:27:51;3.65;;;1.40;;
75665;SDS011;64263;49.492;11.056;2023-07-02T00:30:17;3.40;;;1.40;;
75665;SDS011;64263;49.492;11.056;2023-07-02T00:32:43;4.30;;;1.58;;
75665;SDS011;64263;49.492;11.056;2023-07-02T00:35:08;3.70;;;1.42;;
75665;SDS011;64263;49.492;11.056;2023-07-02T00:37:34;4.22;;;1.70;;
75665;SDS011;64263;49.492;11.056;2023-07-02T00:39:59;3.63;;;1.60;;
75665;SDS011;64263;49.492;11.056;2023-07-02T00:42:24;4.10;;;1.63;;
75665;SDS011;64263;49.492;11.056;2023-07-02T00:44:50;4.35;;;1.45;;
75665;SDS011;64263;49.492;11.056;2023-07-02T00:47:15;5.93;;;1.90;;
75665;SDS011;64263;49.492;11.056;2023-07-02T00:49:41;7.55;;;1.73;;
75665;SDS011;64263;49.492;11.056;2023-07-02T00:52:06;5.13;;;1.80;;
75665;SDS011;64263;49.492;11.056;2023-07-02T00:54:32;4.18;;;1.63;;
75665;SDS011;64263;49.492;11.056;2023-07-02T00:56:57;5.10;;;1.60;;
75665;SDS011;64263;49.492;11.056;2023-07-02T00:59:23;4.38;;;1.70;;
75665;SDS011;64263;49.492;11.056;2023-07-02T01:01:49;4.43;;;1.77;;
75665;SDS011;64263;49.492;11.056;2023-07-02T01:04:14;4.93;;;1.90;;
75665;SDS011;64263;49.492;11.056;2023-07-02T01:06:42;5.25;;;2.10;;
75665;SDS011;64263;49.492;11.056;2023-07-02T01:09:09;6.38;;;2.70;;
75665;SDS011;64263;49.492;11.056;2023-07-02T01:11:42;4.95;;;1.70;;
75665;SDS011;64263;49.492;11.056;2023-07-02T01:16:37;4.75;;;1.88;;
75665;SDS011;64263;49.492;11.056;2023-07-02T01:19:21;5.53;;;2.10;;
75665;SDS011;64263;49.492;11.056;2023-07-02T01:21:55;4.93;;;2.03;;
75665;SDS011;64263;49.492;11.056;2023-07-02T01:24:20;6.30;;;2.40;;
75665;SDS011;64263;49.492;11.056;2023-07-02T01:26:46;5.35;;;1.83;;
75665;SDS011;64263;49.492;11.056;2023-07-02T01:29:13;6.25;;;2.00;;
75665;SDS011;64263;49.492;11.056;2023-07-02T01:31:38;4.55;;;1.92;;
75665;SDS011;64263;49.492;11.056;2023-07-02T01:34:04;5.88;;;2.10;;
75665;SDS011;64263;49.492;11.056;2023-07-02T01:36:29;6.75;;;2.30;;
75665;SDS011;64263;49.492;11.056;2023-07-02T01:38:55;6.15;;;1.90;;
75665;SDS011;64263;49.492;11.056;2023-07-02T01:41:20;3.90;;;1.70;;
75665;SDS011;64263;49.492;11.056;2023-07-02T01:43:46;5.78;;;1.77;;
75665;SDS011;64263;49.492;11.056;2023-07-02T01:46:11;5.32;;;2.10;;
75665;SDS011;64263;49.492;11.056;2023-07-02T01:48:37;5.18;;;2.20;;
75665;SDS011;64263;49.492;11.056;2023-07-02T01:51:02;4.57;;;1.98;;
75665;SDS011;64263;49.492;11.056;2023-07-02T01:53:28;4.90;;;1.80;;
75665;SDS011;64263;49.492;11.056;2023-07-02T01:55:53;6.22;;;2.03;;
75665;SDS011;64263;49.492;11.056;2023-07-02T01:58:18;6.07;;;2.20;;
75665;SDS011;64263;49.492;11.056;2023-07-02T02:00:44;4.53;;;1.80;;
75665;SDS011;64263;49.492;11.056;2023-07-02T02:03:09;6.18;;;1.73;;
75665;SDS011;64263;49.492;11.056;2023-07-02T02:05:35;5.63;;;1.67;;
75665;SDS011;64263;49.492;11.056;2023-07-02T02:08:00;4.55;;;1.90;;
75665;SDS011;64263;49.492;11.056;2023-07-02T02:10:26;4.18;;;1.70;;
75665;SDS011;64263;49.492;11.056;2023-07-02T02:12:51;4.15;;;1.67;;
75665;SDS011;64263;49.492;11.056;2023-07-02T02:15:17;8.63;;;1.90;;
75665;SDS011;64263;49.492;11.056;2023-07-02T02:17:42;4.90;;;2.38;;
75665;SDS011;64263;49.492;11.056;2023-07-02T02:20:08;3.20;;;1.40;;
75665;SDS011;64263;49.492;11.056;2023-07-02T02:22:33;3.90;;;1.85;;
75665;SDS011;64263;49.492;11.056;2023-07-02T02:24:59;3.80;;;1.60;;
75665;SDS011;64263;49.492;11.056;2023-07-02T02:27:24;3.90;;;1.58;;
75665;SDS011;64263;49.492;11.056;2023-07-02T02:29:50;4.75;;;1.77;;
75665;SDS011;64263;49.492;11.056;2023-07-02T02:32:15;4.10;;;1.60;;
75665;SDS011;64263;49.492;11.056;2023-07-02T02:34:41;4.50;;;1.60;;
75665;SDS011;64263;49.492;11.056;2023-07-02T02:37:06;4.10;;;1.70;;
75665;SDS011;64263;49.492;11.056;2023-07-02T02:39:31;5.43;;;1.92;;
75665;SDS011;64263;49.492;11.056;2023-07-02T02:41:57;7.03;;;1.60;;
75665;SDS011;64263;49.492;11.056;2023-07-02T02:44:22;6.47;;;1.98;;
75665;SDS011;64263;49.492;11.056;2023-07-02T02:46:48;4.90;;;1.83;;
75665;SDS011;64263;49.492;11.056;2023-07-02T02:49:14;5.22;;;1.95;;
75665;SDS011;64263;49.492;11.056;2023-07-02T02:51:39;4.40;;;1.85;;
75665;SDS011;64263;49.492;11.056;2023-07-02T02:54:05;4.47;;;1.60;;
75665;SDS011;64263;49.492;11.056;2023-07-02T02:56:30;6.90;;;1.80;;
75665;SDS011;64263;49.492;11.056;2023-07-02T02:58:56;5.22;;;1.60;;
75665;SDS011;64263;49.492;11.056;2023-07-02T03:01:21;5.07;;;1.83;;
75665;SDS011;64263;49.492;11.056;2023-07-02T03:03:47;6.55;;;1.70;;
75665;SDS011;64263;49.492;11.056;2023-07-02T03:06:13;3.90;;;1.60;;
75665;SDS011;64263;49.492;11.056;2023-07-02T03:08:39;5.38;;;1.70;;
75665;SDS011;64263;49.492;11.056;2023-07-02T03:11:04;3.50;;;1.38;;
75665;SDS011;64263;49.492;11.056;2023-07-02T03:13:30;7.57;;;1.88;;
75665;SDS011;64263;49.492;11.056;2023-07-02T03:15:55;5.25;;;1.52;;
75665;SDS011;64263;49.492;11.056;2023-07-02T03:18:21;3.65;;;1.52;;
75665;SDS011;64263;49.492;11.056;2023-07-02T03:20:46;3.42;;;1.45;;
75665;SDS011;64263;49.492;11.056;2023-07-02T03:23:12;3.22;;;1.40;;
75665;SDS011;64263;49.492;11.056;2023-07-02T03:25:37;4.88;;;1.70;;
75665;SDS011;64263;49.492;11.056;2023-07-02T03:28:03;4.25;;;1.60;;
75665;SDS011;64263;49.492;11.056;2023-07-02T03:30:28;4.70;;;1.67;;
75665;SDS011;64263;49.492;11.056;2023-07-02T03:32:54;6.25;;;1.60;;
75665;SDS011;64263;49.492;11.056;2023-07-02T03:35:19;3.25;;;1.30;;
75665;SDS011;64263;49.492;11.056;2023-07-02T03:37:45;5.32;;;1.60;;
75665;SDS011;64263;49.492;11.056;2023-07-02T03:40:10;4.15;;;1.60;;
75665;SDS011;64263;49.492;11.056;2023-07-02T03:42:36;4.13;;;1.55;;
75665;SDS011;64263;49.492;11.056;2023-07-02T03:45:01;5.93;;;1.60;;
75665;SDS011;64263;49.492;11.056;2023-07-02T03:47:27;4.57;;;1.50;;
75665;SDS011;64263;49.492;11.056;2023-07-02T03:49:53;4.00;;;1.50;;
75665;SDS011;64263;49.492;11.056;2023-07-02T03:52:18;4.03;;;1.50;;
75665;SDS011;64263;49.492;11.056;2023-07-02T03:54:44;4.25;;;1.40;;
75665;SDS011;64263;49.492;11.056;2023-07-02T03:57:09;4.68;;;1.45;;
75665;SDS011;64263;49.492;11.056;2023-07-02T03:59:34;7.10;;;1.88;;
75665;SDS011;64263;49.492;11.056;2023-07-02T04:02:00;3.33;;;1.30;;
75665;SDS011;64263;49.492;11.056;2023-07-02T04:04:25;4.00;;;1.40;;
75665;SDS011;64263;49.492;11.056;2023-07-02T04:06:51;3.78;;;1.60;;
75665;SDS011;64263;49.492;11.056;2023-07-02T04:09:17;2.53;;;1.20;;
75665;SDS011;64263;49.492;11.056;2023-07-02T04:11:42;3.58;;;1.55;;
75665;SDS011;64263;49.492;11.056;2023-07-02T04:14:08;3.55;;;1.50;;
75665;SDS011;64263;49.492;11.056;2023-07-02T04:16:33;4.97;;;1.60;;
75665;SDS011;64263;49.492;11.056;2023-07-02T04:18:58;5.97;;;1.40;;
75665;SDS011;64263;49.492;11.056;2023-07-02T04:21:24;4.32;;;1.23;;
75665;SDS011;64263;49.492;11.056;2023-07-02T04:23:49;5.35;;;1.60;;
75665;SDS011;64263;49.492;11.056;2023-07-02T04:26:15;6.25;;;1.38;;
75665;SDS011;64263;49.492;11.056;2023-07-02T04:28:40;6.75;;;1.65;;
75665;SDS011;64263;49.492;11.056;2023-07-02T04:31:06;4.47;;;1.40;;
75665;SDS011;64263;49.492;11.056;2023-07-02T04:33:31;3.65;;;1.20;;
75665;SDS011;64263;49.492;11.056;2023-07-02T04:35:57;5.15;;;1.40;;
75665;SDS011;64263;49.492;11.056;2023-07-02T04:38:22;4.10;;;1.27;;
75665;SDS011;64263;49.492;11.056;2023-07-02T04:40:48;3.60;;;1.35;;
75665;SDS011;64263;49.492;11.056;2023-07-02T04:43:13;5.18;;;1.40;;
75665;SDS011;64263;49.492;11.056;2023-07-02T04:45:38;3.25;;;1.30;;
75665;SDS011;64263;49.492;11.056;2023-07-02T04:48:04;4.40;;;1.27;;
75665;SDS011;64263;49.492;11.056;2023-07-02T04:50:30;5.22;;;1.42;;
75665;SDS011;64263;49.492;11.056;2023-07-02T04:52:55;4.45;;;1.42;;
75665;SDS011;64263;49.492;11.056;2023-07-02T04:55:21;5.68;;;1.50;;
75665;SDS011;64263;49.492;11.056;2023-07-02T04:57:46;6.82;;;1.40;;
75665;SDS011;64263;49.492;11.056;2023-07-02T05:00:12;8.15;;;1.70;;
75665;SDS011;64263;49.492;11.056;2023-07-02T05:02:38;4.75;;;1.42;;
75665;SDS011;64263;49.492;11.056;2023-07-02T05:05:04;5.38;;;1.50;;
75665;SDS011;64263;49.492;11.056;2023-07-02T05:07:30;4.15;;;1.30;;
75665;SDS011;64263;49.492;11.056;2023-07-02T05:09:55;6.40;;;1.40;;
75665;SDS011;64263;49.492;11.056;2023-07-02T05:12:20;6.68;;;1.50;;
75665;SDS011;64263;49.492;11.056;2023-07-02T05:14:46;3.20;;;1.10;;
75665;SDS011;64263;49.492;11.056;2023-07-02T05:17:11;4.78;;;1.40;;
75665;SDS011;64263;49.492;11.056;2023-07-02T05:19:37;5.32;;;1.38;;
75665;SDS011;64263;49.492;11.056;2023-07-02T05:22:02;4.38;;;1.60;;
75665;SDS011;64263;49.492;11.056;2023-07-02T05:24:28;5.25;;;1.48;;
75665;SDS011;64263;49.492;11.056;2023-07-02T05:26:53;6.30;;;1.63;;
75665;SDS011;64263;49.492;11.056;2023-07-02T05:29:19;14.52;;;4.13;;
75665;SDS011;64263;49.492;11.056;2023-07-02T05:31:44;8.95;;;2.47;;
75665;SDS011;64263;49.492;11.056;2023-07-02T05:34:10;7.78;;;2.08;;
75665;SDS011;64263;49.492;11.056;2023-07-02T05:36:35;7.97;;;1.90;;
75665;SDS011;64263;49.492;11.056;2023-07-02T05:39:01;8.15;;;2.45;;
75665;SDS011;64263;49.492;11.056;2023-07-02T05:41:26;7.57;;;2.30;;
75665;SDS011;64263;49.492;11.056;2023-07-02T05:43:52;14.45;;;2.75;;
75665;SDS011;64263;49.492;11.056;2023-07-02T05:46:17;9.25;;;2.90;;
75665;SDS011;64263;49.492;11.056;2023-07-02T05:48:43;8.50;;;2.58;;
75665;SDS011;64263;49.492;11.056;2023-07-02T05:51:08;6.80;;;2.55;;
75665;SDS011;64263;49.492;11.056;2023-07-02T05:53:34;6.70;;;2.40;;
75665;SDS011;64263;49.492;11.056;2023-07-02T05:56:00;5.80;;;2.22;;
75665;SDS011;64263;49.492;11.056;2023-07-02T05:58:25;5.95;;;1.98;;
75665;SDS011;64263;49.492;11.056;2023-07-02T06:00:51;7.97;;;2.10;;
75665;SDS011;64263;49.492;11.056;2023-07-02T06:03:17;7.13;;;2.25;;
75665;SDS011;64263;49.492;11.056;2023-07-02T06:05:43;7.80;;;2.80;;
75665;SDS011;64263;49.492;11.056;2023-07-02T06:08:08;6.88;;;2.25;;
75665;SDS011;64263;49.492;11.056;2023-07-02T06:10:34;6.82;;;2.40;;
75665;SDS011;64263;49.492;11.056;2023-07-02T06:12:59;9.30;;;2.70;;
75665;SDS011;64263;49.492;11.056;2023-07-02T06:15:25;9.23;;;2.90;;
75665;SDS011;64263;49.492;11.056;2023-07-02T06:17:50;9.23;;;2.78;;
75665;SDS011;64263;49.492;11.056;2023-07-02T06:20:15;7.57;;;2.75;;
75665;SDS011;64263;49.492;11.056;2023-07-02T06:22:41;9.02;;;2.70;;
75665;SDS011;64263;49.492;11.056;2023-07-02T06:25:06;14.18;;;3.67;;
75665;SDS011;64263;49.492;11.056;2023-07-02T06:27:32;10.15;;;3.40;;
75665;SDS011;64263;49.492;11.056;2023-07-02T06:29:57;10.15;;;3.30;;
75665;SDS011;64263;49.492;11.056;2023-07-02T06:32:23;9.93;;;3.10;;
75665;SDS011;64263;49.492;11.056;2023-07-02T06:34:48;9.80;;;3.15;;
75665;SDS011;64263;49.492;11.056;2023-07-02T06:37:14;12.38;;;3.40;;
75665;SDS011;64263;49.492;11.056;2023-07-02T06:39:39;6.75;;;2.83;;
75665;SDS011;64263;49.492;11.056;2023-07-02T06:42:05;12.05;;;3.33;;
75665;SDS011;64263;49.492;11.056;2023-07-02T06:44:30;8.85;;;3.00;;
75665;SDS011;64263;49.492;11.056;2023-07-02T06:46:56;11.68;;;3.20;;
75665;SDS011;64263;49.492;11.056;2023-07-02T06:49:21;14.43;;;3.58;;
75665;SDS011;64263;49.492;11.056;2023-07-02T06:51:46;13.27;;;3.35;;
75665;SDS011;64263;49.492;11.056;2023-07-02T06:54:12;11.35;;;3.28;;
75665;SDS011;64263;49.492;11.056;2023-07-02T06:56:37;11.93;;;4.15;;
75665;SDS011;64263;49.492;11.056;2023-07-02T06:59:03;9.52;;;3.33;;
75665;SDS011;64263;49.492;11.056;2023-07-02T07:01:28;12.18;;;4.18;;
75665;SDS011;64263;49.492;11.056;2023-07-02T07:03:54;11.40;;;3.60;;
75665;SDS011;64263;49.492;11.056;2023-07-02T07:06:19;12.13;;;3.25;;
75665;SDS011;64263;49.492;11.056;2023-07-02T07:08:45;9.80;;;3.22;;
75665;SDS011;64263;49.492;11.056;2023-07-02T07:11:10;9.13;;;3.25;;
75665;SDS011;64263;49.492;11.056;2023-07-02T07:13:35;11.35;;;3.30;;
75665;SDS011;64263;49.492;11.056;2023-07-02T07:16:01;12.55;;;4.22;;
75665;SDS011;64263;49.492;11.056;2023-07-02T07:18:26;14.70;;;3.42;;
75665;SDS011;64263;49.492;11.056;2023-07-02T07:20:52;11.32;;;3.70;;
75665;SDS011;64263;49.492;11.056;2023-07-02T07:23:17;8.32;;;3.45;;
75665;SDS011;64263;49.492;11.056;2023-07-02T07:25:43;9.95;;;3.42;;
75665;SDS011;64263;49.492;11.056;2023-07-02T07:28:09;9.15;;;3.47;;
75665;SDS011;64263;49.492;11.056;2023-07-02T07:30:34;10.05;;;3.20;;
75665;SDS011;64263;49.492;11.056;2023-07-02T07:33:00;12.60;;;4.32;;
75665;SDS011;64263;49.492;11.056;2023-07-02T07:35:25;11.65;;;3.15;;
75665;SDS011;64263;49.492;11.056;2023-07-02T07:37:51;12.07;;;3.65;;
75665;SDS011;64263;49.492;11.056;2023-07-02T07:40:16;12.40;;;3.30;;
75665;SDS011;64263;49.492;11.056;2023-07-02T07:42:42;8.75;;;3.45;;
75665;SDS011;64263;49.492;11.056;2023-07-02T07:45:08;9.43;;;3.63;;
75665;SDS011;64263;49.492;11.056;2023-07-02T07:47:35;9.48;;;3.45;;
75665;SDS011;64263;49.492;11.056;2023-07-02T07:50:00;12.75;;;3.60;;
75665;SDS011;64263;49.492;11.056;2023-07-02T07:52:26;10.00;;;2.92;;
75665;SDS011;64263;49.492;11.056;2023-07-02T07:54:51;11.25;;;3.70;;
75665;SDS011;64263;49.492;11.056;2023-07-02T07:57:17;8.50;;;2.42;;
75665;SDS011;64263;49.492;11.056;2023-07-02T07:59:42;14.00;;;3.20;;
75665;SDS011;64263;49.492;11.056;2023-07-02T08:02:08;9.65;;;3.10;;
75665;SDS011;64263;49.492;11.056;2023-07-02T08:04:33;9.27;;;2.90;;
75665;SDS011;64263;49.492;11.056;2023-07-02T08:06:59;9.93;;;3.20;;
75665;SDS011;64263;49.492;11.056;2023-07-02T08:09:24;10.20;;;3.05;;
75665;SDS011;64263;49.492;11.056;2023-07-02T08:11:50;7.88;;;2.90;;
75665;SDS011;64263;49.492;11.056;2023-07-02T08:14:18;10.85;;;2.90;;
75665;SDS011;64263;49.492;11.056;2023-07-02T08:16:44;10.07;;;3.05;;
75665;SDS011;64263;49.492;11.056;2023-07-02T08:19:09;11.40;;;2.80;;
75665;SDS011;64263;49.492;11.056;2023-07-02T08:21:35;8.82;;;2.67;;
75665;SDS011;64263;49.492;11.056;2023-07-02T08:24:01;7.05;;;2.47;;
75665;SDS011;64263;49.492;11.056;2023-07-02T08:26:27;9.00;;;2.50;;
75665;SDS011;64263;49.492;11.056;2023-07-02T08:28:52;9.90;;;3.03;;
75665;SDS011;64263;49.492;11.056;2023-07-02T08:31:18;6.43;;;2.70;;
75665;SDS011;64263;49.492;11.056;2023-07-02T08:33:43;7.80;;;2.65;;
75665;SDS011;64263;49.492;11.056;2023-07-02T08:36:09;10.15;;;3.10;;
75665;SDS011;64263;49.492;11.056;2023-07-02T08:38:34;7.90;;;2.45;;
75665;SDS011;64263;49.492;11.056;2023-07-02T08:41:00;6.47;;;2.30;;
75665;SDS011;64263;49.492;11.056;2023-07-02T08:43:25;7.82;;;2.97;;
75665;SDS011;64263;49.492;11.056;2023-07-02T08:45:51;7.03;;;2.70;;
75665;SDS011;64263;49.492;11.056;2023-07-02T08:48:18;7.07;;;2.15;;
75665;SDS011;64263;49.492;11.056;2023-07-02T08:50:44;7.03;;;2.10;;
75665;SDS011;64263;49.492;11.056;2023-07-02T08:53:09;7.88;;;2.75;;
75665;SDS011;64263;49.492;11.056;2023-07-02T08:55:35;6.35;;;2.33;;
75665;SDS011;64263;49.492;11.056;2023-07-02T08:58:00;8.30;;;2.60;;
75665;SDS011;64263;49.492;11.056;2023-07-02T09:00:26;7.57;;;2.28;;
75665;SDS011;64263;49.492;11.056;2023-07-02T09:02:51;8.25;;;2.80;;
75665;SDS011;64263;49.492;11.056;2023-07-02T09:05:17;9.27;;;2.65;;
75665;SDS011;64263;49.492;11.056;2023-07-02T09:07:43;5.63;;;2.35;;
75665;SDS011;64263;49.492;11.056;2023-07-02T09:10:09;8.95;;;2.70;;
75665;SDS011;64263;49.492;11.056;2023-07-02T09:12:35;7.05;;;2.30;;
75665;SDS011;64263;49.492;11.056;2023-07-02T09:15:01;6.30;;;2.55;;
75665;SDS011;64263;49.492;11.056;2023-07-02T09:17:35;5.70;;;2.22;;
75665;SDS011;64263;49.492;11.056;2023-07-02T09:20:02;8.65;;;2.42;;
75665;SDS011;64263;49.492;11.056;2023-07-02T09:22:29;5.82;;;2.30;;
75665;SDS011;64263;49.492;11.056;2023-07-02T09:24:56;6.05;;;2.35;;
75665;SDS011;64263;49.492;11.056;2023-07-02T09:27:39;7.85;;;2.63;;
75665;SDS011;64263;49.492;11.056;2023-07-02T09:30:06;5.38;;;1.98;;
75665;SDS011;64263;49.492;11.056;2023-07-02T09:32:39;6.45;;;2.15;;
75665;SDS011;64263;49.492;11.056;2023-07-02T09:35:05;20.95;;;3.47;;
75665;SDS011;64263;49.492;11.056;2023-07-02T09:37:31;7.40;;;2.55;;
75665;SDS011;64263;49.492;11.056;2023-07-02T09:39:57;11.18;;;2.45;;
75665;SDS011;64263;49.492;11.056;2023-07-02T09:42:22;5.22;;;2.58;;
75665;SDS011;64263;49.492;11.056;2023-07-02T09:44:54;5.75;;;2.17;;
75665;SDS011;64263;49.492;11.056;2023-07-02T09:47:20;8.85;;;2.20;;
75665;SDS011;64263;49.492;11.056;2023-07-02T09:49:49;7.40;;;2.30;;
75665;SDS011;64263;49.492;11.056;2023-07-02T09:52:19;8.27;;;2.80;;
75665;SDS011;64263;49.492;11.056;2023-07-02T09:54:44;8.35;;;2.65;;
75665;SDS011;64263;49.492;11.056;2023-07-02T09:57:10;9.90;;;2.90;;
75665;SDS011;64263;49.492;11.056;2023-07-02T09:59:35;10.75;;;2.65;;
75665;SDS011;64263;49.492;11.056;2023-07-02T10:02:02;8.50;;;2.88;;
75665;SDS011;64263;49.492;11.056;2023-07-02T10:04:28;10.48;;;5.43;;
75665;SDS011;64263;49.492;11.056;2023-07-02T10:07:08;21.38;;;13.25;;
75665;SDS011;64263;49.492;11.056;2023-07-02T10:09:34;20.73;;;16.70;;
75665;SDS011;64263;49.492;11.056;2023-07-02T10:12:16;23.77;;;15.82;;
75665;SDS011;64263;49.492;11.056;2023-07-02T10:14:43;14.40;;;7.47;;
75665;SDS011;64263;49.492;11.056;2023-07-02T10:17:09;5.82;;;2.88;;
75665;SDS011;64263;49.492;11.056;2023-07-02T10:19:35;7.18;;;3.22;;
75665;SDS011;64263;49.492;11.056;2023-07-02T10:22:01;8.68;;;2.85;;
75665;SDS011;64263;49.492;11.056;2023-07-02T10:24:28;6.22;;;2.60;;
75665;SDS011;64263;49.492;11.056;2023-07-02T10:27:00;9.50;;;3.10;;
75665;SDS011;64263;49.492;11.056;2023-07-02T10:29:27;10.68;;;3.40;;
75665;SDS011;64263;49.492;11.056;2023-07-02T10:31:54;7.75;;;3.10;;
75665;SDS011;64263;49.492;11.056;2023-07-02T10:34:34;8.13;;;2.63;;
75665;SDS011;64263;49.492;11.056;2023-07-02T10:37:03;8.85;;;2.65;;
75665;SDS011;64263;49.492;11.056;2023-07-02T10:39:29;7.50;;;2.53;;
75665;SDS011;64263;49.492;11.056;2023-07-02T10:42:08;9.18;;;2.55;;
75665;SDS011;64263;49.492;11.056;2023-07-02T10:44:34;6.25;;;2.58;;
75665;SDS011;64263;49.492;11.056;2023-07-02T10:47:12;6.32;;;2.55;;
75665;SDS011;64263;49.492;11.056;2023-07-02T10:49:37;7.45;;;2.72;;
75665;SDS011;64263;49.492;11.056;2023-07-02T10:52:03;9.02;;;2.55;;
75665;SDS011;64263;49.492;11.056;2023-07-02T10:57:23;6.47;;;2.70;;
75665;SDS011;64263;49.492;11.056;2023-07-02T10:59:49;15.27;;;2.55;;
75665;SDS011;64263;49.492;11.056;2023-07-02T11:02:15;7.47;;;3.00;;
75665;SDS011;64263;49.492;11.056;2023-07-02T11:04:40;8.95;;;3.00;;
75665;SDS011;64263;49.492;11.056;2023-07-02T11:07:06;8.75;;;3.05;;
75665;SDS011;64263;49.492;11.056;2023-07-02T11:09:32;10.80;;;2.63;;
75665;SDS011;64263;49.492;11.056;2023-07-02T11:11:58;9.30;;;2.88;;
75665;SDS011;64263;49.492;11.056;2023-07-02T11:14:28;7.18;;;2.45;;
75665;SDS011;64263;49.492;11.056;2023-07-02T11:16:55;8.15;;;2.58;;
75665;SDS011;64263;49.492;11.056;2023-07-02T11:19:21;6.75;;;2.58;;
75665;SDS011;64263;49.492;11.056;2023-07-02T11:21:53;8.68;;;2.65;;
75665;SDS011;64263;49.492;11.056;2023-07-02T11:24:29;7.50;;;2.65;;
75665;SDS011;64263;49.492;11.056;2023-07-02T11:26:56;6.20;;;2.65;;
75665;SDS011;64263;49.492;11.056;2023-07-02T11:29:23;7.05;;;2.70;;
75665;SDS011;64263;49.492;11.056;2023-07-02T11:31:48;7.20;;;2.70;;
75665;SDS011;64263;49.492;11.056;2023-07-02T11:34:14;7.30;;;3.10;;
75665;SDS011;64263;49.492;11.056;2023-07-02T11:36:45;7.63;;;3.08;;
75665;SDS011;64263;49.492;11.056;2023-07-02T11:39:11;9.13;;;2.90;;
75665;SDS011;64263;49.492;11.056;2023-07-02T11:41:39;7.95;;;2.92;;
75665;SDS011;64263;49.492;11.056;2023-07-02T11:44:06;7.95;;;2.70;;
75665;SDS011;64263;49.492;11.056;2023-07-02T11:46:32;9.13;;;2.88;;
75665;SDS011;64263;49.492;11.056;2023-07-02T11:48:57;7.82;;;2.83;;
75665;SDS011;64263;49.492;11.056;2023-07-02T11:51:24;6.05;;;2.80;;
75665;SDS011;64263;49.492;11.056;2023-07-02T11:53:50;8.05;;;3.33;;
75665;SDS011;64263;49.492;11.056;2023-07-02T11:56:15;8.70;;;3.17;;
75665;SDS011;64263;49.492;11.056;2023-07-02T11:58:41;8.60;;;3.33;;
75665;SDS011;64263;49.492;11.056;2023-07-02T12:01:07;9.32;;;3.58;;
75665;SDS011;64263;49.492;11.056;2023-07-02T12:03:33;10.02;;;3.22;;
75665;SDS011;64263;49.492;11.056;2023-07-02T12:05:58;6.60;;;2.95;;
75665;SDS011;64263;49.492;11.056;2023-07-02T12:08:24;7.75;;;2.97;;
75665;SDS011;64263;49.492;11.056;2023-07-02T12:10:49;7.88;;;3.20;;
75665;SDS011;64263;49.492;11.056;2023-07-02T12:13:15;11.43;;;3.30;;
75665;SDS011;64263;49.492;11.056;2023-07-02T12:15:40;10.13;;;4.13;;
75665;SDS011;64263;49.492;11.056;2023-07-02T12:18:06;10.30;;;4.45;;
75665;SDS011;64263;49.492;11.056;2023-07-02T12:20:31;11.23;;;4.60;;
75665;SDS011;64263;49.492;11.056;2023-07-02T12:22:57;11.68;;;4.68;;
75665;SDS011;64263;49.492;11.056;2023-07-02T12:25:22;13.13;;;4.32;;
75665;SDS011;64263;49.492;11.056;2023-07-02T12:27:48;9.98;;;4.20;;
75665;SDS011;64263;49.492;11.056;2023-07-02T12:30:14;15.63;;;5.15;;
75665;SDS011;64263;49.492;11.056;2023-07-02T12:32:39;13.15;;;4.80;;
75665;SDS011;64263;49.492;11.056;2023-07-02T12:35:05;11.18;;;4.55;;
75665;SDS011;64263;49.492;11.056;2023-07-02T12:37:31;13.40;;;4.30;;
75665;SDS011;64263;49.492;11.056;2023-07-02T12:39:57;13.45;;;4.05;;
75665;SDS011;64263;49.492;11.056;2023-07-02T12:42:22;12.27;;;4.80;;
75665;SDS011;64263;49.492;11.056;2023-07-02T12:44:48;11.80;;;4.80;;
75665;SDS011;64263;49.492;11.056;2023-07-02T12:47:13;12.45;;;4.93;;
75665;SDS011;64263;49.492;11.056;2023-07-02T12:49:39;12.20;;;4.93;;
75665;SDS011;64263;49.492;11.056;2023-07-02T12:52:04;9.98;;;4.32;;
75665;SDS011;64263;49.492;11.056;2023-07-02T12:54:30;10.80;;;4.43;;
75665;SDS011;64263;49.492;11.056;2023-07-02T12:56:55;9.15;;;4.40;;
75665;SDS011;64263;49.492;11.056;2023-07-02T12:59:21;14.10;;;4.80;;
75665;SDS011;64263;49.492;11.056;2023-07-02T13:01:46;11.00;;;4.80;;
75665;SDS011;64263;49.492;11.056;2023-07-02T13:04:12;9.65;;;4.43;;
75665;SDS011;64263;49.492;11.056;2023-07-02T13:06:37;11.02;;;4.70;;
75665;SDS011;64263;49.492;11.056;2023-07-02T13:09:03;10.73;;;4.03;;
75665;SDS011;64263;49.492;11.056;2023-07-02T13:11:28;11.60;;;5.30;;
75665;SDS011;64263;49.492;11.056;2023-07-02T13:13:53;11.68;;;5.03;;
75665;SDS011;64263;49.492;11.056;2023-07-02T13:16:19;12.52;;;4.63;;
75665;SDS011;64263;49.492;11.056;2023-07-02T13:18:44;9.93;;;4.70;;
75665;SDS011;64263;49.492;11.056;2023-07-02T13:21:10;12.02;;;4.72;;
75665;SDS011;64263;49.492;11.056;2023-07-02T13:23:35;10.60;;;4.28;;
75665;SDS011;64263;49.492;11.056;2023-07-02T13:26:01;12.32;;;5.47;;
75665;SDS011;64263;49.492;11.056;2023-07-02T13:28:26;13.43;;;6.03;;
75665;SDS011;64263;49.492;11.056;2023-07-02T13:30:52;12.00;;;4.80;;
75665;SDS011;64263;49.492;11.056;2023-07-02T13:33:17;12.15;;;5.30;;
75665;SDS011;64263;49.492;11.056;2023-07-02T13:35:43;13.45;;;5.07;;
75665;SDS011;64263;49.492;11.056;2023-07-02T13:38:08;13.50;;;4.75;;
75665;SDS011;64263;49.492;11.056;2023-07-02T13:40:33;14.07;;;5.65;;
75665;SDS011;64263;49.492;11.056;2023-07-02T13:42:59;11.98;;;5.13;;
75665;SDS011;64263;49.492;11.056;2023-07-02T13:45:24;14.13;;;5.30;;
75665;SDS011;64263;49.492;11.056;2023-07-02T13:47:50;19.95;;;5.43;;
75665;SDS011;64263;49.492;11.056;2023-07-02T13:50:15;13.27;;;4.70;;
75665;SDS011;64263;49.492;11.056;2023-07-02T13:52:41;14.50;;;5.38;;
75665;SDS011;64263;49.492;11.056;2023-07-02T13:55:06;13.82;;;5.65;;
75665;SDS011;64263;49.492;11.056;2023-07-02T13:57:32;12.40;;;5.50;;
75665;SDS011;64263;49.492;11.056;2023-07-02T13:59:57;14.63;;;5.90;;
75665;SDS011;64263;49.492;11.056;2023-07-02T14:02:23;14.68;;;5.78;;
75665;SDS011;64263;49.492;11.056;2023-07-02T14:04:49;15.57;;;6.05;;
75665;SDS011;64263;49.492;11.056;2023-07-02T14:07:14;16.13;;;6.28;;
75665;SDS011;64263;49.492;11.056;2023-07-02T14:09:40;15.85;;;6.97;;
75665;SDS011;64263;49.492;11.056;2023-07-02T14:12:05;19.25;;;8.00;;
75665;SDS011;64263;49.492;11.056;2023-07-02T14:14:31;19.42;;;7.28;;
75665;SDS011;64263;49.492;11.056;2023-07-02T14:16:56;14.93;;;5.72;;
75665;SDS011;64263;49.492;11.056;2023-07-02T14:19:22;15.20;;;6.55;;
75665;SDS011;64263;49.492;11.056;2023-07-02T14:21:47;19.48;;;6.32;;
75665;SDS011;64263;49.492;11.056;2023-07-02T14:24:13;14.35;;;5.50;;
75665;SDS011;64263;49.492;11.056;2023-07-02T14:26:39;13.77;;;5.88;;
75665;SDS011;64263;49.492;11.056;2023-07-02T14:29:05;18.35;;;6.22;;